CheckWX is a tool to help pilots better visualize weather data.  It is not intended as a substitute for an official pre-flight weather briefing.

01:55:55 UTC

ZGSZ TAF
Shenzhen Bao'an International Airport
Shenzhen, China
TAF AMD ZGSZ 182005Z 1818/1918 24003MPS 3500 BR SCT040 TX25/1906Z TN20/1822Z TEMPO 1820/1824 1600 BECMG 1910/1912 11004MPS

Mar-18@
18:00 UTC

Mar-18 @ 18:00 UTC

Mar-19@
10:00 UTC

Mar-19 @ 10:00 UTC

TAF AMD ZGSZ 182005Z 1818/1918 24003MPS 3500 BR SCT040 TX25/1906Z TN20/1822Z
Wind
  • 240° at 6 KTS
Conditions
Mist
Cloud Levels
  • Scattered at 4,000' AGL

Mar-18@
20:00 UTC

Mar-18 @ 20:00 UTC

Mar-19@
00:00 UTC

Mar-19 @ 00:00 UTC

TEMPO 1820/1824 1600

Expired

Mar-19@
10:00 UTC

Mar-19 @ 10:00 UTC

Mar-19@
18:00 UTC

Mar-19 @ 18:00 UTC

BECMG 1910/1912 11004MPS

Becoming

Becoming Conditions expected by Tue, Mar 19, 2019 @ 12:00 UTC

Wind
  • 110° at 8 KTS
Conditions
Mist
Cloud Levels
  • Scattered at 4,000' AGL